Terminal Aerodrome Forecast
Issued by NWS Pendleton, OR

Home | Current Version | Previous Version | Text Only | Print | Product List | Glossary On
Versions: 1 2 3 4 5 6 7 8 9 10 11 12 13 14 15 16 17 18 19 20 21 22 23 24 25 26 27 28
000
FTUS46 KPDT 181600 AAA
TAFPDT
TAF AMD
KPDT 181646Z 1817/1912 00000KT 3SM BR BKN001 BKN050
      TEMPO 1817/1818 1/4SM FG VV001
     FM181800 00000KT 3SM BR SCT002 SCT050 OVC080
     FM181900 15004KT P6SM SCT050 BKN080
     FM190300 12004KT 4SM BR VCSH SCT005 OVC035
     FM190600 13005KT 2SM -RA BR SCT005 OVC015=

USA.gov is the U.S. government's official web portal to all federal, state and local government web resources and services.